createdAt,value
2022-10-23T00:01:24.540Z,98538.97
2022-10-23T00:03:53.376Z,98532.22
2022-10-23T00:06:20.555Z,98522.75
2022-10-23T00:08:48.044Z,98530.31
2022-10-23T00:11:18.367Z,98530.03
2022-10-23T00:13:45.469Z,98528.66
2022-10-23T00:16:12.106Z,98536.25
2022-10-23T00:18:39.710Z,98525.44
2022-10-23T00:21:08.426Z,98518.94
2022-10-23T00:23:35.047Z,98526.25
2022-10-23T00:26:02.333Z,98520.03
2022-10-23T00:28:28.765Z,98527.03
2022-10-23T00:30:55.255Z,98524.34
2022-10-23T00:33:21.731Z,98524.59
2022-10-23T00:35:48.439Z,98527.56
2022-10-23T00:38:14.865Z,98528.13
2022-10-23T00:40:42.344Z,98530.84
2022-10-23T00:43:18.498Z,98526.50
2022-10-23T00:45:45.363Z,98535.72
2022-10-23T00:48:12.152Z,98522.44
2022-10-23T00:50:38.707Z,98523.00
2022-10-23T00:53:06.801Z,98521.91
2022-10-23T00:55:33.915Z,98520.03
2022-10-23T00:58:01.674Z,98515.97
2022-10-23T01:00:32.089Z,98501.09
2022-10-23T01:02:58.639Z,98497.84
2022-10-23T01:05:32.915Z,98499.44
2022-10-23T01:08:09.328Z,98489.69
2022-10-23T01:10:52.125Z,98492.13
2022-10-23T01:13:26.870Z,98493.22
2022-10-23T01:16:10.228Z,98486.47
2022-10-23T01:18:42.799Z,98487.81
2022-10-23T01:21:55.305Z,98488.56
2022-10-23T01:24:29.350Z,98483.16
2022-10-23T01:27:13.802Z,98482.31
2022-10-23T01:29:49.047Z,98476.66
2022-10-23T01:32:30.319Z,98481.53
2022-10-23T01:35:07.431Z,98476.41
2022-10-23T01:37:42.198Z,98488.00
2022-10-23T01:40:15.105Z,98484.75
2022-10-23T01:42:46.939Z,98491.75
2022-10-23T01:45:23.913Z,98489.34
2022-10-23T01:47:51.178Z,98480.16
2022-10-23T01:50:19.669Z,98480.16
2022-10-23T01:52:46.220Z,98482.84
2022-10-23T01:55:14.437Z,98476.06
2022-10-23T01:57:44.596Z,98472.56
2022-10-23T02:00:15.032Z,98476.63
2022-10-23T02:02:44.978Z,98467.69
2022-10-23T02:05:22.323Z,98455.81
2022-10-23T02:07:49.393Z,98450.41
2022-10-23T02:10:16.090Z,98454.19
2022-10-23T02:13:18.979Z,98459.84
2022-10-23T02:15:55.054Z,98450.94
2022-10-23T02:18:59.996Z,98455.03
2022-10-23T02:21:38.972Z,98454.47
2022-10-23T02:24:11.510Z,98449.06
2022-10-23T02:26:42.411Z,98442.03
2022-10-23T02:29:39.437Z,98437.16
2022-10-23T02:32:09.208Z,98439.34
2022-10-23T02:34:36.080Z,98430.94
2022-10-23T02:37:02.922Z,98430.94
2022-10-23T02:39:29.971Z,98418.53
2022-10-23T02:42:01.075Z,98420.97
2022-10-23T02:44:45.337Z,98421.50
2022-10-23T02:47:11.681Z,98417.69
2022-10-23T02:50:05.444Z,98411.47
2022-10-23T02:53:04.019Z,98397.16
2022-10-23T02:56:03.989Z,98403.94
2022-10-23T02:58:42.487Z,98399.31
2022-10-23T03:01:17.141Z,98392.84
2022-10-23T03:03:55.196Z,98387.41
2022-10-23T03:06:23.152Z,98389.59
2022-10-23T03:09:03.862Z,98392.56
2022-10-23T03:11:30.403Z,98392.31
2022-10-23T03:13:56.849Z,98392.00
2022-10-23T03:16:23.261Z,98385.53
2022-10-23T03:18:49.714Z,98390.09
2022-10-23T03:21:16.375Z,98380.69
2022-10-23T03:23:42.855Z,98379.56
2022-10-23T03:26:09.517Z,98380.69
2022-10-23T03:28:35.992Z,98368.47
2022-10-23T03:31:03.622Z,98366.59
2022-10-23T03:33:31.166Z,98373.91
2022-10-23T03:35:57.972Z,98372.56
2022-10-23T03:38:24.427Z,98367.97
2022-10-23T03:40:51.010Z,98376.06
2022-10-23T03:43:17.435Z,98376.88
2022-10-23T03:45:43.868Z,98377.41
2022-10-23T03:48:10.738Z,98384.16
2022-10-23T03:50:37.205Z,98393.34
2022-10-23T03:53:03.708Z,98385.22
2022-10-23T03:55:31.104Z,98389.59
2022-10-23T03:57:57.515Z,98378.50
2022-10-23T04:00:24.024Z,98384.72
2022-10-23T04:02:50.655Z,98376.59
2022-10-23T04:05:17.165Z,98374.47
2022-10-23T04:07:43.607Z,98370.66
2022-10-23T04:10:10.028Z,98369.31
2022-10-23T04:12:36.425Z,98375.00
2022-10-23T04:15:02.852Z,98377.13
2022-10-23T04:17:29.292Z,98379.84
2022-10-23T04:19:55.979Z,98370.66
2022-10-23T04:22:24.781Z,98376.03
2022-10-23T04:24:53.990Z,98371.19
2022-10-23T04:27:20.473Z,98379.84
2022-10-23T04:29:46.917Z,98377.66
2022-10-23T04:32:13.349Z,98384.66
2022-10-23T04:34:39.774Z,98386.00
2022-10-23T04:37:06.189Z,98378.44
2022-10-23T04:39:32.658Z,98385.19
2022-10-23T04:41:59.091Z,98378.97
2022-10-23T04:44:25.473Z,98379.78
2022-10-23T04:46:51.868Z,98383.81
2022-10-23T04:49:18.288Z,98391.38
2022-10-23T04:51:44.749Z,98395.97
2022-10-23T04:54:11.889Z,98386.75
2022-10-23T04:56:38.404Z,98397.56
2022-10-23T05:01:31.901Z,98400.75
2022-10-23T05:03:58.490Z,98376.47
2022-10-23T05:06:24.924Z,98378.34
2022-10-23T05:08:51.343Z,98384.03
2022-10-23T05:11:17.787Z,98388.34
2022-10-23T05:13:44.336Z,98385.13
2022-10-23T05:16:21.124Z,98378.09
2022-10-23T05:18:48.170Z,98379.94
2022-10-23T05:21:23.463Z,98384.00
2022-10-23T05:23:50.767Z,98388.81
2022-10-23T05:26:17.184Z,98381.81
2022-10-23T05:28:43.690Z,98378.50
2022-10-23T05:31:10.728Z,98378.22
2022-10-23T05:33:37.548Z,98383.38
2022-10-23T05:36:04.511Z,98375.25
2022-10-23T05:38:33.551Z,98372.00
2022-10-23T05:41:00.029Z,98367.72
2022-10-23T05:43:27.331Z,98382.81
2022-10-23T05:45:54.230Z,98363.69
2022-10-23T05:48:34.381Z,98363.69
2022-10-23T05:51:09.746Z,98370.41
2022-10-23T05:53:38.868Z,98368.53
2022-10-23T05:56:09.200Z,98360.16
2022-10-23T05:58:35.703Z,98356.81
2022-10-23T06:01:09.948Z,98361.78
2022-10-23T06:03:37.797Z,98366.13
2022-10-23T06:06:05.658Z,98378.53
2022-10-23T06:08:33.264Z,98368.84
2022-10-23T06:11:06.230Z,98365.13
2022-10-23T06:13:32.651Z,98376.97
2022-10-23T06:15:59.218Z,98355.09
2022-10-23T06:18:25.660Z,98365.63
2022-10-23T06:20:52.067Z,98376.44
2022-10-23T06:23:18.464Z,98370.50
2022-10-23T06:25:51.276Z,98371.88
2022-10-23T06:28:20.510Z,98368.41
2022-10-23T06:30:47.355Z,98364.84
2022-10-23T06:33:13.792Z,98363.28
2022-10-23T06:35:40.215Z,98358.94
2022-10-23T06:38:06.781Z,98359.53
2022-10-23T06:40:33.169Z,98371.13
2022-10-23T06:42:59.616Z,98372.25
2022-10-23T06:45:26.030Z,98358.22
2022-10-23T06:47:52.733Z,98353.38
2022-10-23T06:50:19.208Z,98357.69
2022-10-23T06:52:47.348Z,98350.16
2022-10-23T06:55:14.944Z,98360.94
2022-10-23T06:57:41.923Z,98350.69
2022-10-23T07:00:09.475Z,98356.63
2022-10-23T07:02:36.298Z,98363.41
2022-10-23T07:05:02.715Z,98361.78
2022-10-23T07:07:32.347Z,98350.16
2022-10-23T07:09:58.866Z,98359.06
2022-10-23T07:12:25.329Z,98356.09
2022-10-23T07:14:51.761Z,98363.16
2022-10-23T07:17:18.253Z,98362.06
2022-10-23T07:23:22.603Z,98352.28
2022-10-23T07:25:49.076Z,98346.34
2022-10-23T07:28:15.536Z,98345.53
2022-10-23T07:30:42.940Z,98347.69
2022-10-23T07:33:12.372Z,98345.78
2022-10-23T07:35:40.841Z,98346.59
2022-10-23T07:38:07.262Z,98355.47
2022-10-23T07:40:33.719Z,98349.00
2022-10-23T07:43:00.184Z,98356.00
2022-10-23T07:45:26.645Z,98361.13
2022-10-23T07:47:53.147Z,98348.84
2022-10-23T07:50:19.717Z,98348.81
2022-10-23T07:52:46.536Z,98341.63
2022-10-23T07:55:13.854Z,98356.91
2022-10-23T07:57:40.374Z,98358.78
2022-10-23T08:00:07.422Z,98353.47
2022-10-23T08:02:33.914Z,98350.16
2022-10-23T08:05:00.421Z,98344.91
2022-10-23T08:07:26.961Z,98330.16
2022-10-23T08:09:53.517Z,98338.72
2022-10-23T08:12:19.975Z,98352.00
2022-10-23T08:14:46.415Z,98341.47
2022-10-23T08:17:12.868Z,98344.84
2022-10-23T08:19:39.396Z,98337.81
2022-10-23T08:22:06.079Z,98334.31
2022-10-23T08:24:32.523Z,98320.50
2022-10-23T08:26:59.412Z,98325.31
2022-10-23T08:29:25.830Z,98319.78
2022-10-23T08:31:56.358Z,98311.00
2022-10-23T08:34:23.666Z,98312.34
2022-10-23T08:36:50.367Z,98305.25
2022-10-23T08:39:16.808Z,98294.16
2022-10-23T08:41:49.189Z,98287.19
2022-10-23T08:44:30.914Z,98297.41
2022-10-23T08:47:17.126Z,98303.00
2022-10-23T08:49:50.538Z,98299.66
2022-10-23T08:52:16.959Z,98312.28
2022-10-23T08:54:57.081Z,98301.16
2022-10-23T08:57:25.817Z,98300.66
2022-10-23T09:00:00.301Z,98295.16
2022-10-23T09:02:32.629Z,98290.78
2022-10-23T09:04:59.530Z,98286.28
2022-10-23T09:08:04.658Z,98281.44
2022-10-23T09:10:51.623Z,98295.88
2022-10-23T09:13:28.343Z,98282.66
2022-10-23T09:16:18.643Z,98284.84
2022-10-23T09:18:47.389Z,98282.13
2022-10-23T09:21:14.114Z,98275.31
2022-10-23T09:23:40.511Z,98270.53
2022-10-23T09:26:14.451Z,98277.41
2022-10-23T09:28:50.586Z,98286.94
2022-10-23T09:31:18.825Z,98275.38
2022-10-23T09:34:00.837Z,98275.19
2022-10-23T09:36:29.276Z,98261.59
2022-10-23T09:38:58.880Z,98255.16
2022-10-23T09:41:36.252Z,98261.50
2022-10-23T09:44:18.968Z,98256.16
2022-10-23T09:46:54.235Z,98254.41
2022-10-23T09:49:26.465Z,98255.03
2022-10-23T09:52:03.697Z,98255.44
2022-10-23T09:54:38.142Z,98262.38
2022-10-23T09:57:31.171Z,98257.50
2022-10-23T10:00:03.908Z,98260.63
2022-10-23T10:02:36.210Z,98257.69
2022-10-23T10:05:24.357Z,98275.09
2022-10-23T10:08:22.577Z,98266.00
2022-10-23T10:11:04.761Z,98271.06
2022-10-23T10:13:34.012Z,98280.22
2022-10-23T10:16:21.614Z,98271.19
2022-10-23T10:19:14.155Z,98275.59
2022-10-23T10:21:57.956Z,98276.91
2022-10-23T10:24:29.869Z,98264.34
2022-10-23T10:27:15.833Z,98278.03
2022-10-23T10:29:56.724Z,98274.22
2022-10-23T10:32:41.753Z,98263.75
2022-10-23T10:35:23.770Z,98261.69
2022-10-23T10:38:24.114Z,98264.47
2022-10-23T10:41:09.035Z,98262.88
2022-10-23T10:43:47.998Z,98257.97
2022-10-23T10:46:32.547Z,98245.00
2022-10-23T10:49:13.037Z,98253.19
2022-10-23T10:52:09.786Z,98244.59
2022-10-23T10:55:11.711Z,98232.72
2022-10-23T10:57:45.954Z,98246.22
2022-10-23T11:00:21.216Z,98241.97
2022-10-23T11:03:00.522Z,98236.91
2022-10-23T11:05:38.118Z,98225.69
2022-10-23T11:08:13.740Z,98209.84
2022-10-23T11:10:46.224Z,98215.81
2022-10-23T11:13:28.918Z,98216.97
2022-10-23T11:16:01.329Z,98203.09
2022-10-23T11:18:30.886Z,98210.41
2022-10-23T11:21:09.774Z,98202.00
2022-10-23T11:24:13.387Z,98193.84
2022-10-23T11:26:51.935Z,98189.34
2022-10-23T11:29:27.508Z,98190.13
2022-10-23T11:32:03.025Z,98193.00
2022-10-23T11:35:02.565Z,98188.31
2022-10-23T11:37:29.168Z,98195.03
2022-10-23T11:40:07.575Z,98183.28
2022-10-23T11:42:47.328Z,98180.25
2022-10-23T11:45:30.671Z,98179.00
2022-10-23T11:48:01.551Z,98172.84
2022-10-23T11:50:31.109Z,98177.47
2022-10-23T11:53:15.804Z,98174.16
2022-10-23T11:56:19.872Z,98165.38
2022-10-23T11:58:50.560Z,98164.69
2022-10-23T12:01:39.518Z,98163.13
2022-10-23T12:04:14.916Z,98153.66
2022-10-23T12:06:47.598Z,98149.78
2022-10-23T12:09:46.256Z,98137.91
2022-10-23T12:12:26.203Z,98127.97
2022-10-23T12:14:52.705Z,98123.59
2022-10-23T12:17:22.102Z,98120.41
2022-10-23T12:20:01.999Z,98118.72
2022-10-23T12:22:54.350Z,98121.06
2022-10-23T12:25:43.511Z,98112.50
2022-10-23T12:28:24.720Z,98102.50
2022-10-23T12:31:05.164Z,98091.75
2022-10-23T12:34:14.501Z,98088.72
2022-10-23T12:36:51.290Z,98089.03
2022-10-23T12:39:31.676Z,98093.22
2022-10-23T12:42:00.352Z,98091.59
2022-10-23T12:44:27.823Z,98081.94
2022-10-23T12:47:00.763Z,98096.00
2022-10-23T12:49:31.980Z,98083.44
2022-10-23T12:52:14.018Z,98071.25
2022-10-23T12:54:41.409Z,98085.09
2022-10-23T12:57:20.978Z,98079.00
2022-10-23T12:59:48.085Z,98083.13
2022-10-23T13:02:23.827Z,98086.44
2022-10-23T13:04:53.474Z,98089.91
2022-10-23T13:07:24.575Z,98074.75
2022-10-23T13:09:51.823Z,98075.88
2022-10-23T13:12:30.750Z,98071.47
2022-10-23T13:15:00.434Z,98077.81
2022-10-23T13:17:42.247Z,98070.56
2022-10-23T13:20:30.775Z,98049.72
2022-10-23T13:23:00.639Z,98054.53
2022-10-23T13:25:27.679Z,98048.94
2022-10-23T13:28:19.022Z,98039.47
2022-10-23T13:30:48.763Z,98030.44
2022-10-23T13:33:21.384Z,98030.13
2022-10-23T13:35:58.934Z,98020.00
2022-10-23T13:38:33.340Z,98023.53
2022-10-23T13:41:01.199Z,98023.69
2022-10-23T13:43:30.647Z,98017.91
2022-10-23T13:46:00.859Z,98013.09
2022-10-23T13:48:28.213Z,98016.97
2022-10-23T13:51:06.338Z,98000.91
2022-10-23T13:53:33.113Z,98004.09
2022-10-23T13:55:59.709Z,98005.09
2022-10-23T13:58:26.114Z,97984.69
2022-10-23T14:00:52.700Z,97985.81
2022-10-23T14:03:20.320Z,97989.06
2022-10-23T14:05:46.705Z,97986.97
2022-10-23T14:08:13.118Z,97989.50
2022-10-23T14:10:39.538Z,97990.78
2022-10-23T14:13:06.191Z,98003.75
2022-10-23T14:15:32.594Z,98002.19
2022-10-23T14:18:00.180Z,98005.72
2022-10-23T14:20:28.949Z,98008.69
2022-10-23T14:22:55.436Z,98011.63
2022-10-23T14:25:22.365Z,98008.03
2022-10-23T14:27:49.197Z,98006.56
2022-10-23T14:30:15.704Z,98013.03
2022-10-23T14:32:42.532Z,98009.94
2022-10-23T14:35:09.298Z,98015.03
2022-10-23T14:37:35.777Z,98018.19
2022-10-23T14:40:02.275Z,98048.59
2022-10-23T14:42:34.084Z,98047.13
2022-10-23T14:45:02.553Z,98068.09
2022-10-23T14:47:28.998Z,98059.06
2022-10-23T14:49:56.216Z,98090.47
2022-10-23T14:52:23.605Z,98082.47
2022-10-23T14:54:53.564Z,98043.41
2022-10-23T14:57:22.098Z,98038.41
2022-10-23T14:59:49.689Z,98059.38
2022-10-23T15:02:16.842Z,98050.22
2022-10-23T15:04:43.539Z,98021.28
2022-10-23T15:07:09.996Z,98030.28
2022-10-23T15:09:36.672Z,98015.44
2022-10-23T15:12:04.507Z,98011.75
2022-10-23T15:14:31.045Z,98023.44
2022-10-23T15:16:57.514Z,97994.75
2022-10-23T15:19:24.048Z,97976.41
2022-10-23T15:21:50.542Z,97951.50
2022-10-23T15:24:17.515Z,97969.03
2022-10-23T15:26:44.502Z,97950.19
2022-10-23T15:29:12.107Z,97943.34
2022-10-23T15:31:38.576Z,97927.53
2022-10-23T15:34:05.799Z,97934.09
2022-10-23T15:36:33.079Z,97920.69
2022-10-23T15:38:59.669Z,97924.72
2022-10-23T15:41:31.386Z,97928.06
2022-10-23T15:43:58.964Z,97931.84
2022-10-23T15:46:25.530Z,97941.72
2022-10-23T15:48:52.306Z,97939.72
2022-10-23T15:51:18.763Z,97922.34
2022-10-23T15:53:45.169Z,97916.28
2022-10-23T15:56:11.560Z,97911.56
2022-10-23T15:58:37.964Z,97920.34
2022-10-23T16:01:06.524Z,97905.50
2022-10-23T16:03:37.745Z,97926.19
2022-10-23T16:06:09.432Z,97934.63
2022-10-23T16:08:36.336Z,97933.47
2022-10-23T16:11:03.528Z,97932.06
2022-10-23T16:13:29.996Z,97936.28
2022-10-23T16:15:56.431Z,97934.00
2022-10-23T16:18:23.628Z,97931.72
2022-10-23T16:20:55.466Z,97938.13
2022-10-23T16:23:22.353Z,97945.00
2022-10-23T16:25:48.794Z,97949.53
2022-10-23T16:28:15.310Z,97954.28
2022-10-23T16:30:42.984Z,97949.13
2022-10-23T16:33:10.074Z,97960.50
2022-10-23T16:35:37.093Z,97976.22
2022-10-23T16:38:04.586Z,97975.81
2022-10-23T16:40:31.219Z,97984.06
2022-10-23T16:42:58.343Z,97994.13
2022-10-23T16:45:24.918Z,97999.56
2022-10-23T16:47:51.341Z,97998.53
2022-10-23T16:50:17.885Z,97995.63
2022-10-23T16:52:44.676Z,98004.72
2022-10-23T16:55:11.352Z,98016.69
2022-10-23T16:57:37.813Z,98031.22
2022-10-23T17:00:05.209Z,98022.13
2022-10-23T17:02:31.993Z,98042.78
2022-10-23T17:04:58.568Z,98039.66
2022-10-23T17:07:25.192Z,98032.00
2022-10-23T17:09:51.659Z,98066.28
2022-10-23T17:12:18.199Z,98076.53
2022-10-23T17:14:44.629Z,98074.91
2022-10-23T17:17:11.029Z,98075.13
2022-10-23T17:19:45.460Z,98101.69
2022-10-23T17:22:13.624Z,98087.50
2022-10-23T17:24:40.996Z,98105.91
2022-10-23T17:27:07.659Z,98121.03
2022-10-23T17:29:34.196Z,98128.66
2022-10-23T17:32:01.012Z,98139.94
2022-10-23T17:34:27.526Z,98143.44
2022-10-23T17:36:55.012Z,98152.19
2022-10-23T17:39:26.742Z,98144.56
2022-10-23T17:41:53.903Z,98166.47
2022-10-23T17:44:21.215Z,98172.50
2022-10-23T17:46:53.823Z,98168.34
2022-10-23T17:49:21.703Z,98162.66
2022-10-23T17:51:54.976Z,98174.31
2022-10-23T17:54:22.468Z,98155.97
2022-10-23T17:56:49.019Z,98175.31
2022-10-23T17:59:17.497Z,98164.66
2022-10-23T18:01:46.345Z,98177.53
2022-10-23T18:04:12.976Z,98170.91
2022-10-23T18:06:48.831Z,98183.44
2022-10-23T18:09:15.657Z,98187.31
2022-10-23T18:11:47.036Z,98207.25
2022-10-23T18:14:15.683Z,98220.13
2022-10-23T18:16:42.328Z,98229.78
2022-10-23T18:19:09.251Z,98230.25
2022-10-23T18:21:36.423Z,98229.44
2022-10-23T18:24:03.216Z,98195.16
2022-10-23T18:26:32.213Z,98196.81
2022-10-23T18:28:59.608Z,98184.06
2022-10-23T18:31:29.616Z,98202.09
2022-10-23T18:34:01.663Z,98192.19
2022-10-23T18:36:30.585Z,98194.75
2022-10-23T18:38:57.163Z,98214.63
2022-10-23T18:41:23.819Z,98213.19
2022-10-23T18:43:54.545Z,98219.63
2022-10-23T18:46:21.967Z,98200.75
2022-10-23T18:48:50.770Z,98177.13
2022-10-23T18:51:23.232Z,98182.59
2022-10-23T18:53:50.389Z,98157.81
2022-10-23T18:56:22.753Z,98165.41
2022-10-23T18:58:53.310Z,98184.88
2022-10-23T19:01:20.551Z,98200.69
2022-10-23T19:03:47.844Z,98212.44
2022-10-23T19:06:14.999Z,98215.97
2022-10-23T19:08:43.905Z,98186.81
2022-10-23T19:11:12.138Z,98193.78
2022-10-23T19:13:39.590Z,98143.44
2022-10-23T19:16:29.287Z,98156.16
2022-10-23T19:19:00.025Z,98147.13
2022-10-23T19:21:40.286Z,98138.78
2022-10-23T19:24:33.597Z,98126.56
2022-10-23T19:27:01.890Z,98150.03
2022-10-23T19:29:29.514Z,98116.28
2022-10-23T19:32:03.555Z,98109.84
2022-10-23T19:34:29.988Z,98156.78
2022-10-23T19:36:56.384Z,98135.56
2022-10-23T19:39:38.717Z,98132.81
2022-10-23T19:42:08.720Z,98149.53
2022-10-23T19:44:38.236Z,98166.72
2022-10-23T19:47:04.723Z,98171.06
2022-10-23T19:49:31.179Z,98178.81
2022-10-23T19:51:57.671Z,98203.41
2022-10-23T19:54:24.749Z,98194.13
2022-10-23T19:56:51.233Z,98195.41
2022-10-23T19:59:18.332Z,98207.56
2022-10-23T20:01:47.845Z,98213.19
2022-10-23T20:04:15.272Z,98197.94
2022-10-23T20:06:41.664Z,98178.94
2022-10-23T20:09:09.786Z,98172.34
2022-10-23T20:11:38.587Z,98195.16
2022-10-23T20:14:06.072Z,98175.22
2022-10-23T20:16:35.703Z,98178.59
2022-10-23T20:19:06.975Z,98190.28
2022-10-23T20:21:38.419Z,98187.72
2022-10-23T20:24:05.245Z,98197.50
2022-10-23T20:26:31.900Z,98212.63
2022-10-23T20:28:58.353Z,98216.44
2022-10-23T20:31:27.020Z,98204.56
2022-10-23T20:33:54.319Z,98229.94
2022-10-23T20:36:24.647Z,98213.72
2022-10-23T20:38:51.729Z,98200.88
2022-10-23T20:41:18.257Z,98206.53
2022-10-23T20:43:44.695Z,98196.53
2022-10-23T20:46:11.168Z,98193.13
2022-10-23T20:48:39.779Z,98210.69
2022-10-23T20:51:08.611Z,98194.16
2022-10-23T20:53:36.160Z,98188.06
2022-10-23T20:56:17.388Z,98208.63
2022-10-23T20:58:44.280Z,98216.00
2022-10-23T21:01:16.642Z,98203.19
2022-10-23T21:03:43.940Z,98195.28
2022-10-23T21:06:13.887Z,98188.06
2022-10-23T21:08:40.981Z,98186.94
2022-10-23T21:11:11.080Z,98179.69
2022-10-23T21:13:37.525Z,98184.97
2022-10-23T21:16:17.645Z,98181.44
2022-10-23T21:18:46.373Z,98188.19
2022-10-23T21:21:16.941Z,98194.28
2022-10-23T21:23:43.401Z,98200.53
2022-10-23T21:26:09.821Z,98207.78
2022-10-23T21:28:36.337Z,98185.31
2022-10-23T21:31:08.904Z,98202.31
2022-10-23T21:33:36.789Z,98209.56
2022-10-23T21:36:18.987Z,98211.97
2022-10-23T21:38:47.133Z,98229.47
2022-10-23T21:41:19.318Z,98219.22
2022-10-23T21:43:46.125Z,98231.75
2022-10-23T21:46:17.998Z,98216.56
2022-10-23T21:48:44.935Z,98219.78
2022-10-23T21:51:35.317Z,98218.78
2022-10-23T21:54:02.043Z,98215.72
2022-10-23T21:56:32.086Z,98225.84
2022-10-23T21:59:00.858Z,98238.66
2022-10-23T22:01:28.346Z,98269.81
2022-10-23T22:03:55.728Z,98247.75
2022-10-23T22:06:26.148Z,98225.41
2022-10-23T22:08:54.047Z,98226.78
2022-10-23T22:11:20.857Z,98225.34
2022-10-23T22:13:47.395Z,98225.25
2022-10-23T22:16:17.603Z,98210.63
2022-10-23T22:18:44.662Z,98211.81
2022-10-23T22:21:15.563Z,98192.03
2022-10-23T22:23:42.820Z,98199.03
2022-10-23T22:26:19.669Z,98203.66
2022-10-23T22:28:46.069Z,98194.34
2022-10-23T22:31:17.829Z,98202.66
2022-10-23T22:33:44.775Z,98193.06
2022-10-23T22:36:11.352Z,98190.69
2022-10-23T22:38:38.800Z,98190.75
2022-10-23T22:41:05.637Z,98197.13
2022-10-23T22:43:32.036Z,98202.97
2022-10-23T22:46:08.338Z,98194.19
2022-10-23T22:48:35.795Z,98185.59
2022-10-23T22:51:02.787Z,98183.56
2022-10-23T22:53:29.819Z,98182.94
2022-10-23T22:55:56.889Z,98172.66
2022-10-23T22:58:24.612Z,98160.97
2022-10-23T23:00:52.162Z,98168.22
2022-10-23T23:03:18.614Z,98162.56
2022-10-23T23:05:47.227Z,98162.88
2022-10-23T23:08:14.819Z,98178.22
2022-10-23T23:10:41.533Z,98160.16
2022-10-23T23:13:08.211Z,98165.63
2022-10-23T23:15:40.421Z,98157.25
2022-10-23T23:18:06.894Z,98164.19
2022-10-23T23:20:33.681Z,98162.44
2022-10-23T23:23:00.089Z,98169.81
2022-10-23T23:25:26.566Z,98165.16
2022-10-23T23:27:52.984Z,98176.19
2022-10-23T23:30:19.449Z,98190.44
2022-10-23T23:32:48.102Z,98201.84
2022-10-23T23:35:14.663Z,98199.06
2022-10-23T23:37:41.070Z,98175.31
2022-10-23T23:40:08.125Z,98158.84
2022-10-23T23:42:34.588Z,98159.28
2022-10-23T23:45:13.803Z,98156.13
2022-10-23T23:47:41.467Z,98141.84
2022-10-23T23:50:10.241Z,98151.78
2022-10-23T23:52:36.660Z,98164.19
2022-10-23T23:55:03.202Z,98161.13
2022-10-23T23:57:29.650Z,98165.53
2022-10-23T23:59:56.223Z,98176.69
